Terminal Aerodrome Forecast
Issued by NWS

Home | Current Version | Previous Version | Text Only | Print | Product List | Glossary On
Versions: 1 2 3 4 5 6 7 8 9 10 11 12 13 14 15
000
FTUS43 KMPX 120500
TAFRNH
TAF
KRNH 120520Z 1206/1306 02005KT P6SM BKN060
     FM121400 33005KT P6SM SCT050 OVC120
     FM121800 31005KT P6SM OVC050
     FM130000 VRB02KT P6SM SCT100=

USA.gov is the U.S. government's official web portal to all federal, state and local government web resources and services.